Time,TemperatureF,DewpointF,PressureIn,WindDirection,WindDirectionDegrees,WindSpeedMPH,WindSpeedGustMPH,Humidity,HourlyPrecipIn,Conditions,Clouds,dailyrainin,SoftwareType,DateUTC
2013-05-28 00:03:00,72.0,-99.9,30.21,North,-999,-999.0,-999.0,-999,-99.99,,,-99.99,,2013-05-28 04:03:00,
2013-05-28 00:13:00,72.0,-99.9,30.21,North,-999,-999.0,-999.0,-999,-99.99,,,-99.99,,2013-05-28 04:13:00,
2013-05-28 00:23:00,72.0,-99.9,30.21,South,172,13.0,14.0,-999,-99.99,,,-99.99,,2013-05-28 04:23:00,
2013-05-28 00:33:00,72.0,-99.9,30.21,North,-999,-999.0,-999.0,-999,-99.99,,,-99.99,,2013-05-28 04:33:00,
2013-05-28 00:43:00,72.0,-99.9,30.21,South,170,11.0,13.0,-999,-99.99,,,-99.99,,2013-05-28 04:43:00,
2013-05-28 00:53:00,72.0,-99.9,30.21,North,-999,-999.0,-999.0,-999,-99.99,,,-99.99,,2013-05-28 04:53:00,
2013-05-28 01:02:00,72.0,-99.9,30.22,North,-999,-999.0,-999.0,-999,-99.99,,,-99.99,,2013-05-28 05:02:00,
2013-05-28 01:12:00,72.0,-99.9,30.21,North,-999,-999.0,-999.0,-999,-99.99,,,-99.99,,2013-05-28 05:12:00,
2013-05-28 01:22:00,72.0,-99.9,30.21,South,169,11.0,12.0,-999,-99.99,,,-99.99,,2013-05-28 05:22:00,
2013-05-28 01:33:00,72.0,-99.9,30.21,North,-999,-999.0,-999.0,-999,-99.99,,,-99.99,,2013-05-28 05:33:00,
2013-05-28 01:43:00,72.0,-99.9,30.21,North,-999,-999.0,-999.0,-999,-99.99,,,-99.99,,2013-05-28 05:43:00,
2013-05-28 01:52:00,72.0,-99.9,30.21,North,-999,-999.0,-999.0,-999,-99.99,,,-99.99,,2013-05-28 05:52:00,
2013-05-28 02:02:00,72.0,-99.9,30.21,North,-999,-999.0,-999.0,-999,-99.99,,,-99.99,,2013-05-28 06:02:00,
2013-05-28 02:12:00,72.0,-99.9,30.21,North,-999,-999.0,-999.0,-999,-99.99,,,-99.99,,2013-05-28 06:12:00,
2013-05-28 02:22:00,72.0,-99.9,30.21,SSE,165,7.0,9.0,-999,-99.99,,,-99.99,,2013-05-28 06:22:00,
2013-05-28 02:32:00,72.0,-99.9,30.21,North,-999,-999.0,-999.0,-999,-99.99,,,-99.99,,2013-05-28 06:32:00,
2013-05-28 02:42:00,72.0,-99.9,30.20,North,-999,-999.0,-999.0,-999,-99.99,,,-99.99,,2013-05-28 06:42:00,
2013-05-28 02:52:00,72.0,-99.9,30.20,North,-999,-999.0,-999.0,-999,-99.99,,,-99.99,,2013-05-28 06:52:00,
2013-05-28 03:02:00,72.0,-99.9,30.20,North,-999,-999.0,-999.0,-999,-99.99,,,-99.99,,2013-05-28 07:02:00,
2013-05-28 03:11:00,72.0,-99.9,30.20,North,-999,-999.0,-999.0,-999,-99.99,,,-99.99,,2013-05-28 07:11:00,
2013-05-28 03:22:00,72.0,-99.9,30.20,SSE,164,8.0,9.0,-999,-99.99,,,-99.99,,2013-05-28 07:22:00,
2013-05-28 03:32:00,72.0,-99.9,30.19,North,-999,-999.0,-999.0,-999,-99.99,,,-99.99,,2013-05-28 07:32:00,
2013-05-28 03:42:00,72.0,-99.9,30.19,SSE,163,7.0,8.0,-999,-99.99,,,-99.99,,2013-05-28 07:42:00,
2013-05-28 03:52:00,71.0,-99.9,30.19,North,-999,-999.0,-999.0,-999,-99.99,,,-99.99,,2013-05-28 07:52:00,
2013-05-28 04:02:00,71.0,-99.9,30.20,North,-999,-999.0,-999.0,-999,-99.99,,,-99.99,,2013-05-28 08:02:00,
2013-05-28 04:12:00,71.0,-99.9,30.20,North,-999,-999.0,-999.0,-999,-99.99,,,-99.99,,2013-05-28 08:12:00,
2013-05-28 04:22:00,71.0,-99.9,30.20,SSE,162,5.0,5.0,-999,-99.99,,,-99.99,,2013-05-28 08:22:00,
2013-05-28 04:32:00,71.0,-99.9,30.20,North,-999,-999.0,-999.0,-999,-99.99,,,-99.99,,2013-05-28 08:32:00,
2013-05-28 04:42:00,71.0,-99.9,30.21,SSE,168,4.0,4.0,-999,-99.99,,,-99.99,,2013-05-28 08:42:00,
2013-05-28 04:52:00,70.0,-99.9,30.20,North,-999,-999.0,-999.0,-999,-99.99,,,-99.99,,2013-05-28 08:52:00,
2013-05-28 05:01:00,70.0,-99.9,30.20,WSW,252,1.0,2.0,-999,-99.99,,,-99.99,,2013-05-28 09:01:00,
2013-05-28 05:11:00,70.0,-99.9,30.20,North,-999,-999.0,-999.0,-999,-99.99,,,-99.99,,2013-05-28 09:11:00,
2013-05-28 05:22:00,70.0,-99.9,30.20,SW,225,3.0,4.0,-999,-99.99,,,-99.99,,2013-05-28 09:22:00,
2013-05-28 05:33:00,70.0,-99.9,30.20,North,-999,-999.0,-999.0,-999,-99.99,,,-99.99,,2013-05-28 09:33:00,
2013-05-28 05:43:00,70.0,-99.9,30.20,South,180,2.0,3.0,-999,-99.99,,,-99.99,,2013-05-28 09:43:00,
2013-05-28 05:54:00,71.0,-99.9,30.20,North,-999,-999.0,-999.0,-999,-99.99,,,-99.99,,2013-05-28 09:54:00,
2013-05-28 06:03:00,71.0,-99.9,30.19,North,-999,-999.0,-999.0,-999,-99.99,,,-99.99,,2013-05-28 10:03:00,
2013-05-28 06:12:00,71.0,-99.9,30.20,North,-999,-999.0,-999.0,-999,-99.99,,,-99.99,,2013-05-28 10:12:00,
2013-05-28 06:23:00,71.0,-99.9,30.20,SSE,162,8.0,9.0,-999,-99.99,,,-99.99,,2013-05-28 10:23:00,
2013-05-28 06:32:00,71.0,-99.9,30.21,North,-999,-999.0,-999.0,-999,-99.99,,,-99.99,,2013-05-28 10:32:00,
2013-05-28 06:43:00,71.0,-99.9,30.21,North,-999,-999.0,-999.0,-999,-99.99,,,-99.99,,2013-05-28 10:43:00,
2013-05-28 06:53:00,71.0,-99.9,30.21,North,-999,-999.0,-999.0,-999,-99.99,,,-99.99,,2013-05-28 10:53:00,
2013-05-28 07:03:00,71.0,-99.9,30.21,North,-999,-999.0,-999.0,-999,-99.99,,,-99.99,,2013-05-28 11:03:00,
2013-05-28 07:12:00,72.0,-99.9,30.21,SSE,153,7.0,8.0,-999,-99.99,,,-99.99,,2013-05-28 11:12:00,
2013-05-28 07:23:00,72.0,-99.9,30.21,North,-999,-999.0,-999.0,-999,-99.99,,,-99.99,,2013-05-28 11:23:00,
2013-05-28 07:32:00,72.0,-99.9,30.21,North,-999,-999.0,-999.0,-999,-99.99,,,-99.99,,2013-05-28 11:32:00,
2013-05-28 07:42:00,72.0,-99.9,30.22,North,-999,-999.0,-999.0,-999,-99.99,,,-99.99,,2013-05-28 11:42:00,
2013-05-28 07:52:00,72.0,-99.9,30.22,SSE,148,7.0,8.0,-999,-99.99,,,-99.99,,2013-05-28 11:52:00,
2013-05-28 08:02:00,72.0,-99.9,30.22,North,-999,-999.0,-999.0,-999,-99.99,,,-99.99,,2013-05-28 12:02:00,
2013-05-28 08:11:00,72.0,-99.9,30.23,SSE,147,6.0,7.0,-999,-99.99,,,-99.99,,2013-05-28 12:11:00,
2013-05-28 08:22:00,72.0,-99.9,30.23,North,-999,-999.0,-999.0,-999,-99.99,,,-99.99,,2013-05-28 12:22:00,
2013-05-28 08:32:00,73.0,-99.9,30.23,North,-999,-999.0,-999.0,-999,-99.99,,,-99.99,,2013-05-28 12:32:00,
2013-05-28 08:42:00,72.0,-99.9,30.24,North,-999,-999.0,-999.0,-999,-99.99,,,-99.99,,2013-05-28 12:42:00,
2013-05-28 08:52:00,73.0,-99.9,30.24,SE,146,7.0,7.0,-999,-99.99,,,-99.99,,2013-05-28 12:52:00,
2013-05-28 09:01:00,73.0,-99.9,30.23,North,-999,-999.0,-999.0,-999,-99.99,,,-99.99,,2013-05-28 13:01:00,
2013-05-28 09:11:00,73.0,-99.9,30.23,SE,140,7.0,8.0,-999,-99.99,,,-99.99,,2013-05-28 13:11:00,
2013-05-28 09:22:00,73.0,-99.9,30.23,North,-999,-999.0,-999.0,-999,-99.99,,,-99.99,,2013-05-28 13:22:00,
2013-05-28 09:32:00,73.0,-99.9,30.24,North,-999,-999.0,-999.0,-999,-99.99,,,-99.99,,2013-05-28 13:32:00,
2013-05-28 09:42:00,74.0,-99.9,30.24,SE,131,7.0,8.0,-999,-99.99,,,-99.99,,2013-05-28 13:42:00,
2013-05-28 09:52:00,74.0,-99.9,30.25,SE,129,7.0,8.0,-999,-99.99,,,-99.99,,2013-05-28 13:52:00,
2013-05-28 10:02:00,74.0,-99.9,30.25,North,-999,-999.0,-999.0,-999,-99.99,,,-99.99,,2013-05-28 14:02:00,
2013-05-28 10:12:00,74.0,-99.9,30.25,North,-999,-999.0,-999.0,-999,-99.99,,,-99.99,,2013-05-28 14:12:00,
2013-05-28 10:22:00,74.0,-99.9,30.25,North,-999,-999.0,-999.0,-999,-99.99,,,-99.99,,2013-05-28 14:22:00,
2013-05-28 10:32:00,74.0,-99.9,30.26,North,-999,-999.0,-999.0,-999,-99.99,,,-99.99,,2013-05-28 14:32:00,
2013-05-28 10:42:00,74.0,-99.9,30.26,North,-999,-999.0,-999.0,-999,-99.99,,,-99.99,,2013-05-28 14:42:00,
2013-05-28 10:52:00,74.0,-99.9,30.26,ESE,120,8.0,9.0,-999,-99.99,,,-99.99,,2013-05-28 14:52:00,
2013-05-28 11:01:00,74.0,-99.9,30.26,North,-999,-999.0,-999.0,-999,-99.99,,,-99.99,,2013-05-28 15:01:00,
2013-05-28 11:11:00,74.0,-99.9,30.26,ESE,122,9.0,10.0,-999,-99.99,,,-99.99,,2013-05-28 15:11:00,
2013-05-28 11:22:00,74.0,-99.9,30.26,North,-999,-999.0,-999.0,-999,-99.99,,,-99.99,,2013-05-28 15:22:00,
2013-05-28 11:33:00,74.0,-99.9,30.26,North,-999,-999.0,-999.0,-999,-99.99,,,-99.99,,2013-05-28 15:33:00,
2013-05-28 11:43:00,74.0,-99.9,30.26,North,-999,-999.0,-999.0,-999,-99.99,,,-99.99,,2013-05-28 15:43:00,
2013-05-28 11:53:00,74.0,-99.9,30.27,SE,124,10.0,11.0,-999,-99.99,,,-99.99,,2013-05-28 15:53:00,
2013-05-28 12:03:00,74.0,-99.9,30.26,North,-999,-999.0,-999.0,-999,-99.99,,,-99.99,,2013-05-28 16:03:00,
2013-05-28 12:13:00,74.0,-99.9,30.26,SE,125,11.0,12.0,-999,-99.99,,,-99.99,,2013-05-28 16:13:00,
2013-05-28 12:23:00,74.0,-99.9,30.26,North,-999,-999.0,-999.0,-999,-99.99,,,-99.99,,2013-05-28 16:23:00,
2013-05-28 12:33:00,74.0,-99.9,30.26,North,-999,-999.0,-999.0,-999,-99.99,,,-99.99,,2013-05-28 16:33:00,
2013-05-28 12:42:00,74.0,-99.9,30.27,North,-999,-999.0,-999.0,-999,-99.99,,,-99.99,,2013-05-28 16:42:00,
2013-05-28 12:53:00,74.0,-99.9,30.27,ESE,123,12.0,13.0,-999,-99.99,,,-99.99,,2013-05-28 16:53:00,
2013-05-28 13:02:00,74.0,-99.9,30.27,North,-999,-999.0,-999.0,-999,-99.99,,,-99.99,,2013-05-28 17:02:00,
2013-05-28 13:12:00,74.0,-99.9,30.27,North,-999,-999.0,-999.0,-999,-99.99,,,-99.99,,2013-05-28 17:12:00,
2013-05-28 13:22:00,74.0,-99.9,30.26,SE,125,11.0,12.0,-999,-99.99,,,-99.99,,2013-05-28 17:22:00,
2013-05-28 13:32:00,75.0,-99.9,30.27,North,-999,-999.0,-999.0,-999,-99.99,,,-99.99,,2013-05-28 17:32:00,
2013-05-28 13:42:00,75.0,-99.9,30.27,North,-999,-999.0,-999.0,-999,-99.99,,,-99.99,,2013-05-28 17:42:00,
2013-05-28 13:52:00,75.0,-99.9,30.27,SE,130,12.0,13.0,-999,-99.99,,,-99.99,,2013-05-28 17:52:00,
2013-05-28 14:01:00,75.0,-99.9,30.26,North,-999,-999.0,-999.0,-999,-99.99,,,-99.99,,2013-05-28 18:01:00,
2013-05-28 14:11:00,75.0,-99.9,30.26,North,-999,-999.0,-999.0,-999,-99.99,,,-99.99,,2013-05-28 18:11:00,
2013-05-28 14:22:00,75.0,-99.9,30.26,SE,134,11.0,12.0,-999,-99.99,,,-99.99,,2013-05-28 18:22:00,
2013-05-28 14:32:00,75.0,-99.9,30.26,North,-999,-999.0,-999.0,-999,-99.99,,,-99.99,,2013-05-28 18:32:00,
2013-05-28 14:43:00,75.0,-99.9,30.26,North,-999,-999.0,-999.0,-999,-99.99,,,-99.99,,2013-05-28 18:43:00,
2013-05-28 14:52:00,74.0,-99.9,30.25,North,-999,-999.0,-999.0,-999,-99.99,,,-99.99,,2013-05-28 18:52:00,
2013-05-28 15:01:00,74.0,-99.9,30.24,North,-999,-999.0,-999.0,-999,-99.99,,,-99.99,,2013-05-28 19:01:00,
2013-05-28 15:11:00,74.0,-99.9,30.24,North,-999,-999.0,-999.0,-999,-99.99,,,-99.99,,2013-05-28 19:11:00,
2013-05-28 15:22:00,74.0,-99.9,30.24,SSE,150,13.0,14.0,-999,-99.99,,,-99.99,,2013-05-28 19:22:00,
2013-05-28 15:32:00,74.0,-99.9,30.23,North,-999,-999.0,-999.0,-999,-99.99,,,-99.99,,2013-05-28 19:32:00,
2013-05-28 15:42:00,74.0,-99.9,30.23,SSE,147,13.0,14.0,-999,-99.99,,,-99.99,,2013-05-28 19:42:00,
2013-05-28 15:52:00,75.0,-99.9,30.23,North,-999,-999.0,-999.0,-999,-99.99,,,-99.99,,2013-05-28 19:52:00,
2013-05-28 16:02:00,75.0,-99.9,30.22,North,-999,-999.0,-999.0,-999,-99.99,,,-99.99,,2013-05-28 20:02:00,
2013-05-28 16:11:00,75.0,-99.9,30.22,SE,144,12.0,14.0,-999,-99.99,,,-99.99,,2013-05-28 20:11:00,
2013-05-28 16:22:00,75.0,-99.9,30.22,North,-999,-999.0,-999.0,-999,-99.99,,,-99.99,,2013-05-28 20:22:00,
2013-05-28 16:32:00,74.0,-99.9,30.22,North,-999,-999.0,-999.0,-999,-99.99,,,-99.99,,2013-05-28 20:32:00,
2013-05-28 16:42:00,74.0,-99.9,30.21,North,-999,-999.0,-999.0,-999,-99.99,,,-99.99,,2013-05-28 20:42:00,
2013-05-28 16:52:00,74.0,-99.9,30.21,SSE,149,13.0,14.0,-999,-99.99,,,-99.99,,2013-05-28 20:52:00,
2013-05-28 17:02:00,74.0,-99.9,30.21,North,-999,-999.0,-999.0,-999,-99.99,,,-99.99,,2013-05-28 21:02:00,
2013-05-28 17:11:00,74.0,-99.9,30.20,SSE,160,12.0,15.0,-999,-99.99,,,-99.99,,2013-05-28 21:11:00,
2013-05-28 17:22:00,74.0,-99.9,30.20,North,-999,-999.0,-999.0,-999,-99.99,,,-99.99,,2013-05-28 21:22:00,
2013-05-28 17:33:00,74.0,-99.9,30.19,North,-999,-999.0,-999.0,-999,-99.99,,,-99.99,,2013-05-28 21:33:00,
2013-05-28 17:43:00,74.0,-99.9,30.19,North,-999,-999.0,-999.0,-999,-99.99,,,-99.99,,2013-05-28 21:43:00,
2013-05-28 17:53:00,74.0,-99.9,30.20,North,-999,-999.0,-999.0,-999,-99.99,,,-99.99,,2013-05-28 21:53:00,
2013-05-28 18:02:00,74.0,-99.9,30.19,North,-999,-999.0,-999.0,-999,-99.99,,,-99.99,,2013-05-28 22:02:00,
2013-05-28 18:13:00,74.0,-99.9,30.19,North,-999,-999.0,-999.0,-999,-99.99,,,-99.99,,2013-05-28 22:13:00,
2013-05-28 18:22:00,74.0,-99.9,30.19,South,173,15.0,16.0,-999,-99.99,,,-99.99,,2013-05-28 22:22:00,
2013-05-28 18:33:00,74.0,-99.9,30.20,North,-999,-999.0,-999.0,-999,-99.99,,,-99.99,,2013-05-28 22:33:00,
2013-05-28 18:42:00,74.0,-99.9,30.20,South,178,12.0,14.0,-999,-99.99,,,-99.99,,2013-05-28 22:42:00,
2013-05-28 18:52:00,75.0,-99.9,30.20,North,-999,-999.0,-999.0,-999,-99.99,,,-99.99,,2013-05-28 22:52:00,
2013-05-28 19:02:00,74.0,-99.9,30.20,North,-999,-999.0,-999.0,-999,-99.99,,,-99.99,,2013-05-28 23:02:00,
2013-05-28 19:11:00,74.0,-99.9,30.19,North,-999,-999.0,-999.0,-999,-99.99,,,-99.99,,2013-05-28 23:11:00,
2013-05-28 19:22:00,74.0,-99.9,30.20,South,182,12.0,13.0,-999,-99.99,,,-99.99,,2013-05-28 23:22:00,
2013-05-28 19:32:00,74.0,-99.9,30.20,North,-999,-999.0,-999.0,-999,-99.99,,,-99.99,,2013-05-28 23:32:00,
2013-05-28 19:42:00,74.0,-99.9,30.20,South,182,12.0,13.0,-999,-99.99,,,-99.99,,2013-05-28 23:42:00,
2013-05-28 19:52:00,74.0,-99.9,30.20,North,-999,-999.0,-999.0,-999,-99.99,,,-99.99,,2013-05-28 23:52:00,
2013-05-28 20:02:00,74.0,-99.9,30.20,North,-999,-999.0,-999.0,-999,-99.99,,,-99.99,,2013-05-29 00:02:00,
2013-05-28 20:11:00,74.0,-99.9,30.19,North,-999,-999.0,-999.0,-999,-99.99,,,-99.99,,2013-05-29 00:11:00,
2013-05-28 20:22:00,74.0,-99.9,30.19,South,181,10.0,11.0,-999,-99.99,,,-99.99,,2013-05-29 00:22:00,
2013-05-28 20:32:00,73.0,-99.9,30.20,North,-999,-999.0,-999.0,-999,-99.99,,,-99.99,,2013-05-29 00:32:00,
2013-05-28 20:42:00,73.0,-99.9,30.20,South,184,9.0,10.0,-999,-99.99,,,-99.99,,2013-05-29 00:42:00,
2013-05-28 20:52:00,73.0,-99.9,30.20,North,-999,-999.0,-999.0,-999,-99.99,,,-99.99,,2013-05-29 00:52:00,
2013-05-28 21:01:00,73.0,-99.9,30.20,North,-999,-999.0,-999.0,-999,-99.99,,,-99.99,,2013-05-29 01:01:00,
2013-05-28 21:11:00,73.0,-99.9,30.20,North,-999,-999.0,-999.0,-999,-99.99,,,-99.99,,2013-05-29 01:11:00,
2013-05-28 21:22:00,73.0,-99.9,30.20,South,185,9.0,11.0,-999,-99.99,,,-99.99,,2013-05-29 01:22:00,
2013-05-28 21:32:00,73.0,-99.9,30.20,North,-999,-999.0,-999.0,-999,-99.99,,,-99.99,,2013-05-29 01:32:00,
2013-05-28 21:42:00,73.0,-99.9,30.21,North,-999,-999.0,-999.0,-999,-99.99,,,-99.99,,2013-05-29 01:42:00,
2013-05-28 21:52:00,73.0,-99.9,30.21,North,-999,-999.0,-999.0,-999,-99.99,,,-99.99,,2013-05-29 01:52:00,
2013-05-28 22:02:00,73.0,-99.9,30.21,North,-999,-999.0,-999.0,-999,-99.99,,,-99.99,,2013-05-29 02:02:00,
2013-05-28 22:12:00,73.0,-99.9,30.22,South,187,6.0,8.0,-999,-99.99,,,-99.99,,2013-05-29 02:12:00,
2013-05-28 22:22:00,73.0,-99.9,30.21,North,-999,-999.0,-999.0,-999,-99.99,,,-99.99,,2013-05-29 02:22:00,
2013-05-28 22:32:00,73.0,-99.9,30.21,North,-999,-999.0,-999.0,-999,-99.99,,,-99.99,,2013-05-29 02:32:00,
2013-05-28 22:42:00,73.0,-99.9,30.21,North,-999,-999.0,-999.0,-999,-99.99,,,-99.99,,2013-05-29 02:42:00,
2013-05-28 22:52:00,73.0,-99.9,30.22,South,184,8.0,9.0,-999,-99.99,,,-99.99,,2013-05-29 02:52:00,
2013-05-28 23:02:00,73.0,-99.9,30.21,North,-999,-999.0,-999.0,-999,-99.99,,,-99.99,,2013-05-29 03:02:00,
2013-05-28 23:12:00,73.0,-99.9,30.21,South,179,11.0,12.0,-999,-99.99,,,-99.99,,2013-05-29 03:12:00,
2013-05-28 23:22:00,73.0,-99.9,30.20,North,-999,-999.0,-999.0,-999,-99.99,,,-99.99,,2013-05-29 03:22:00,
2013-05-28 23:33:00,73.0,-99.9,30.20,North,-999,-999.0,-999.0,-999,-99.99,,,-99.99,,2013-05-29 03:33:00,
2013-05-28 23:43:00,74.0,-99.9,30.20,North,-999,-999.0,-999.0,-999,-99.99,,,-99.99,,2013-05-29 03:43:00,
2013-05-28 23:53:00,74.0,-99.9,30.20,South,182,13.0,15.0,-999,-99.99,,,-99.99,,2013-05-29 03:53:00,